Time;durP1;ratioP1;P1;durP2;ratioP2;P2;SDS_P1;SDS_P2;PMS_P1;PMS_P2;Temp;Humidity;BMP_temperature;BMP_pressure;BME280_temperature;BME280_humidity;BME280_pressure;Samples;Min_cycle;Max_cycle;Signal;HPM_P1;HPM_P2
2023/12/29 00:05:53;;;;;;;0.00;0.00;;;;;;;7.75;69.44;100508.56;15656464;28;20186;-50
2023/12/29 00:13:30;;;;;;;0.75;0.38;;;;;;;7.93;68.42;100502.69;15674568;28;20080;-51
2023/12/29 00:21:06;;;;;;;0.00;0.00;;;;;;;7.83;68.36;100486.16;15670793;28;20068;-53
2023/12/29 00:28:42;;;;;;;0.10;0.10;;;;;;;7.87;68.57;100479.41;15674245;28;20037;-53
2023/12/29 00:36:16;;;;;;;0.00;0.00;;;;;;;7.98;67.84;100473.50;15656535;28;20465;-49
2023/12/29 00:43:54;;;;;;;0.20;0.20;;;;;;;7.88;68.39;100468.53;15653032;28;20155;-48
2023/12/29 00:51:33;;;;;;;0.00;0.00;;;;;;;8.23;66.93;100462.28;15649238;28;20045;-50
2023/12/29 00:59:10;;;;;;;0.40;0.40;;;;;;;8.10;67.17;100466.56;15651494;28;20033;-48
2023/12/29 01:06:44;;;;;;;0.00;0.00;;;;;;;8.13;67.17;100455.47;15653875;28;20124;-53
2023/12/29 01:14:19;;;;;;;0.00;0.00;;;;;;;8.07;67.35;100450.09;15655882;28;20568;-50
2023/12/29 01:21:53;;;;;;;0.00;0.00;;;;;;;8.17;67.09;100434.50;15653184;28;20128;-50
2023/12/29 01:29:27;;;;;;;0.00;0.00;;;;;;;8.23;66.90;100432.88;15670407;28;20118;-48
2023/12/29 01:37:03;;;;;;;0.00;0.00;;;;;;;8.23;67.22;100414.97;15652634;28;20410;-52
2023/12/29 01:44:38;;;;;;;0.00;0.00;;;;;;;8.15;67.49;100415.97;15665651;28;20075;-48
2023/12/29 01:52:16;;;;;;;0.10;0.10;;;;;;;8.11;67.74;100401.38;15650208;28;20063;-50
2023/12/29 01:59:53;;;;;;;0.00;0.00;;;;;;;8.09;67.65;100387.38;15648065;28;20040;-49
2023/12/29 02:07:30;;;;;;;0.00;0.00;;;;;;;8.24;67.59;100389.88;15648917;28;20041;-52
2023/12/29 02:15:07;;;;;;;0.00;0.00;;;;;;;8.28;67.11;100375.06;15666304;28;20409;-49
2023/12/29 02:22:40;;;;;;;0.22;0.15;;;;;;;8.18;67.47;100359.44;15647808;28;20044;-52
2023/12/29 02:30:23;;;;;;;0.00;0.00;;;;;;;8.26;67.13;100350.41;15650575;28;20037;-51
2023/12/29 02:37:58;;;;;;;0.00;0.00;;;;;;;8.14;67.30;100344.81;15649948;28;20049;-47
2023/12/29 02:45:35;;;;;;;0.00;0.00;;;;;;;8.19;67.18;100342.38;15626970;28;20041;-48
2023/12/29 02:53:08;;;;;;;0.30;0.17;;;;;;;8.35;66.33;100319.75;15649998;28;20107;-51
2023/12/29 03:00:49;;;;;;;0.00;0.00;;;;;;;8.39;66.47;100328.19;15649542;28;20061;-54
2023/12/29 03:08:22;;;;;;;0.00;0.00;;;;;;;8.41;66.45;100324.31;15650647;28;20060;-47
2023/12/29 03:16:00;;;;;;;0.00;0.00;;;;;;;8.49;66.04;100312.59;15649098;28;20359;-47
2023/12/29 03:23:33;;;;;;;0.00;0.00;;;;;;;8.32;66.68;100312.13;15633790;28;20045;-49
2023/12/29 03:31:09;;;;;;;0.10;0.10;;;;;;;8.26;67.03;100314.81;15659032;28;20124;-49
2023/12/29 03:38:43;;;;;;;0.00;0.00;;;;;;;8.31;66.54;100302.47;15655459;28;20564;-49
2023/12/29 03:46:20;;;;;;;0.08;0.08;;;;;;;8.25;66.86;100289.09;15649850;28;20100;-50
2023/12/29 03:53:56;;;;;;;0.00;0.00;;;;;;;8.21;66.72;100295.88;15657812;28;20439;-49
2023/12/29 04:01:34;;;;;;;0.00;0.00;;;;;;;8.25;66.63;100279.22;15657492;28;20115;-49
2023/12/29 04:09:08;;;;;;;0.08;0.08;;;;;;;8.17;66.44;100263.41;15658015;28;20041;-50
2023/12/29 04:16:43;;;;;;;0.00;0.00;;;;;;;8.32;66.52;100256.00;15675549;28;20045;-51
2023/12/29 04:24:21;;;;;;;0.00;0.00;;;;;;;8.43;66.11;100241.19;15656711;28;20498;-49
2023/12/29 04:31:56;;;;;;;0.00;0.00;;;;;;;8.50;66.17;100239.34;15673595;28;20065;-52
2023/12/29 04:39:30;;;;;;;0.00;0.00;;;;;;;8.67;65.69;100231.66;15638821;28;20037;-47
2023/12/29 04:47:09;;;;;;;0.00;0.00;;;;;;;8.76;65.75;100237.59;15664614;28;20041;-48
2023/12/29 04:54:44;;;;;;;0.00;0.00;;;;;;;8.67;66.17;100220.97;15667926;28;20065;-52
2023/12/29 05:02:19;;;;;;;0.00;0.00;;;;;;;8.64;66.67;100216.88;15670278;28;20049;-54
2023/12/29 05:09:53;;;;;;;0.00;0.00;;;;;;;8.76;66.04;100213.53;15650797;28;20041;-51
2023/12/29 05:17:28;;;;;;;0.00;0.00;;;;;;;8.71;66.31;100211.47;15653371;28;20047;-49
2023/12/29 05:25:01;;;;;;;0.10;0.10;;;;;;;8.78;66.06;100214.16;15670432;28;20139;-52
2023/12/29 05:32:36;;;;;;;0.00;0.00;;;;;;;9.00;65.41;100206.63;15650371;28;20103;-48
2023/12/29 05:40:12;;;;;;;0.20;0.20;;;;;;;8.87;65.50;100199.50;15669808;28;20126;-49
2023/12/29 05:47:49;;;;;;;0.00;0.00;;;;;;;8.84;65.22;100205.28;15649185;28;20128;-48
2023/12/29 05:55:22;;;;;;;0.00;0.00;;;;;;;8.93;64.62;100198.66;15670185;28;20541;-52
2023/12/29 06:02:59;;;;;;;0.00;0.00;;;;;;;8.77;64.90;100191.13;15669160;28;20037;-53
2023/12/29 06:10:32;;;;;;;0.00;0.00;;;;;;;8.67;65.19;100189.69;15666645;28;20190;-50
2023/12/29 06:18:10;;;;;;;0.00;0.00;;;;;;;8.87;64.68;100173.56;15648037;28;20529;-49
2023/12/29 06:25:44;;;;;;;0.00;0.00;;;;;;;9.01;64.18;100152.91;15669921;28;20383;-47
2023/12/29 06:33:20;;;;;;;0.10;0.10;;;;;;;8.94;64.70;100166.31;15649018;28;20410;-48
2023/12/29 06:40:55;;;;;;;0.00;0.00;;;;;;;9.07;64.57;100218.16;15666096;22;20037;-52
2023/12/29 06:48:29;;;;;;;0.00;0.00;;;;;;;9.22;64.06;100218.69;15665962;28;20390;-55
2023/12/29 06:56:03;;;;;;;0.00;0.00;;;;;;;9.02;64.62;100213.44;15658449;28;20037;-51
2023/12/29 07:03:40;;;;;;;0.00;0.00;;;;;;;8.97;64.80;100225.81;15667962;28;20401;-54
2023/12/29 07:11:14;;;;;;;0.00;0.00;;;;;;;9.07;64.55;100237.72;15649183;28;20037;-50
2023/12/29 07:18:49;;;;;;;;;;;;;;;9.13;64.47;100236.84;15682527;28;20094;-53
2023/12/29 07:26:22;;;;;;;0.00;0.00;;;;;;;9.07;65.20;100236.88;15685048;28;19975;-51
2023/12/29 07:33:57;;;;;;;0.00;0.00;;;;;;;9.20;64.59;100224.25;15683362;28;20045;-51
2023/12/29 07:41:31;;;;;;;0.00;0.00;;;;;;;9.26;64.11;100219.09;15682964;28;20575;-54
2023/12/29 07:49:07;;;;;;;0.00;0.00;;;;;;;9.28;64.16;100217.84;15657755;28;20068;-52
2023/12/29 07:56:41;;;;;;;0.10;0.10;;;;;;;9.05;64.71;100218.38;15676573;28;20041;-54
2023/12/29 08:04:16;;;;;;;0.00;0.00;;;;;;;8.91;65.34;100220.28;15678534;28;20064;-54
2023/12/29 08:11:49;;;;;;;0.00;0.00;;;;;;;8.91;65.50;100241.69;15658511;28;20170;-54
2023/12/29 08:19:24;;;;;;;;;;;;;;;8.93;65.07;100212.03;15677212;28;20047;-53
2023/12/29 08:26:57;;;;;;;0.00;0.00;;;;;;;9.22;65.01;100237.44;15660518;28;19932;-54
2023/12/29 08:34:34;;;;;;;0.00;0.00;;;;;;;9.32;64.35;100255.72;15679214;28;20146;-52
2023/12/29 08:42:07;;;;;;;0.13;0.13;;;;;;;9.77;63.34;100272.56;15683712;28;20033;-57
2023/12/29 08:49:43;;;;;;;0.00;0.00;;;;;;;9.53;64.40;100273.34;15676356;28;20048;-53
2023/12/29 08:57:18;;;;;;;0.00;0.00;;;;;;;9.66;63.81;100271.41;15680186;28;20068;-54
2023/12/29 09:04:52;;;;;;;0.10;0.10;;;;;;;9.87;63.34;100269.41;15645629;28;20068;-53
2023/12/29 09:12:26;;;;;;;0.00;0.00;;;;;;;9.85;63.08;100271.50;15679101;28;20041;-54
2023/12/29 09:20:01;;;;;;;0.00;0.00;;;;;;;9.95;62.93;100275.31;15676918;28;20041;-51
2023/12/29 09:27:34;;;;;;;0.00;0.00;;;;;;;10.51;61.53;100268.28;15673988;28;20390;-56
2023/12/29 09:35:11;;;;;;;0.00;0.00;;;;;;;10.87;60.43;100269.38;15674519;28;20115;-53
2023/12/29 09:42:47;;;;;;;0.88;0.30;;;;;;;11.86;58.06;100262.72;15677329;28;20049;-54
2023/12/29 09:50:22;;;;;;;0.00;0.00;;;;;;;11.86;57.01;100262.72;15651770;28;20041;-50
2023/12/29 09:57:59;;;;;;;0.00;0.00;;;;;;;12.88;53.68;100258.88;15674933;28;20080;-53
2023/12/29 10:05:34;;;;;;;0.00;0.00;;;;;;;11.19;58.43;100261.94;15657005;28;20037;-53
2023/12/29 10:13:12;;;;;;;0.00;0.00;;;;;;;11.13;59.23;100263.66;15673930;28;20045;-54
2023/12/29 10:20:56;;;;;;;0.00;0.00;;;;;;;11.24;59.73;100271.00;15675872;28;20052;-51
2023/12/29 10:28:30;;;;;;;0.00;0.00;;;;;;;12.54;55.37;100234.44;15674296;28;20056;-56
2023/12/29 10:36:07;;;;;;;0.00;0.00;;;;;;;12.19;56.13;100227.19;15667722;28;20124;-53
2023/12/29 10:43:41;;;;;;;0.00;0.00;;;;;;;12.31;55.77;100226.38;15687226;28;20583;-52
2023/12/29 10:51:16;;;;;;;0.00;0.00;;;;;;;12.13;56.32;100220.06;15687400;28;20080;-52
2023/12/29 10:58:59;;;;;;;0.00;0.00;;;;;;;12.29;55.66;100241.94;15669590;28;20041;-54
2023/12/29 11:06:46;;;;;;;0.00;0.00;;;;;;;11.67;56.77;100232.34;15685998;28;20049;-53
2023/12/29 11:14:23;;;;;;;0.00;0.00;;;;;;;11.54;57.92;100242.47;15685920;28;20357;-50
2023/12/29 11:21:59;;;;;;;0.10;0.10;;;;;;;11.31;57.77;100222.53;15686176;28;20053;-54
2023/12/29 11:29:36;;;;;;;0.00;0.00;;;;;;;11.42;57.98;100231.66;15686316;28;20041;-52
2023/12/29 11:37:23;;;;;;;0.30;0.25;;;;;;;11.39;58.65;100213.34;15675364;28;20055;-52
2023/12/29 11:44:57;;;;;;;2.55;0.98;;;;;;;11.11;59.65;100205.88;15674909;28;20053;-53
2023/12/29 11:52:38;;;;;;;;;;;;;;;10.94;60.74;100203.78;15665991;28;20037;-51
2023/12/29 12:00:13;;;;;;;0.00;0.00;;;;;;;11.16;59.54;100189.88;15680578;28;19931;-54
2023/12/29 12:08:01;;;;;;;0.10;0.10;;;;;;;11.01;60.15;100176.06;15685913;28;20036;-54
2023/12/29 12:15:40;;;;;;;0.00;0.00;;;;;;;11.06;60.34;100195.81;15665648;28;20045;-54
2023/12/29 12:23:18;;;;;;;0.00;0.00;;;;;;;10.86;62.13;100187.97;15666164;28;20052;-51
2023/12/29 12:31:06;;;;;;;0.00;0.00;;;;;;;10.93;61.93;100188.72;15684584;28;20132;-52
2023/12/29 12:38:53;;;;;;;0.00;0.00;;;;;;;10.75;62.76;100191.44;15660367;28;20099;-51
2023/12/29 12:46:34;;;;;;;0.00;0.00;;;;;;;10.64;63.78;100176.91;15671453;28;20071;-52
2023/12/29 12:54:08;;;;;;;0.00;0.00;;;;;;;10.74;64.12;100176.38;15647555;28;20049;-53
2023/12/29 13:01:42;;;;;;;0.00;0.00;;;;;;;10.60;64.17;100169.53;15679508;28;20053;-53
2023/12/29 13:09:21;;;;;;;0.85;0.63;;;;;;;10.78;63.53;100163.31;15660984;28;20045;-51
2023/12/29 13:17:06;;;;;;;0.00;0.00;;;;;;;10.77;63.79;100157.16;15661003;28;20128;-50
2023/12/29 13:24:46;;;;;;;0.00;0.00;;;;;;;10.77;64.02;100158.97;15678193;28;20553;-49
2023/12/29 13:32:26;;;;;;;0.38;0.38;;;;;;;10.65;63.89;100135.59;15676252;28;20041;-49
2023/12/29 13:40:10;;;;;;;2.45;0.43;;;;;;;10.59;64.21;100131.13;15676164;28;20068;-53
2023/12/29 13:47:44;;;;;;;0.00;0.00;;;;;;;10.82;63.79;100145.69;15667922;28;20048;-51
2023/12/29 13:55:23;;;;;;;0.00;0.00;;;;;;;10.78;63.71;100131.13;15673602;28;20115;-47
2023/12/29 14:03:06;;;;;;;0.82;0.40;;;;;;;10.70;64.14;100154.53;15665423;28;20388;-48
2023/12/29 14:10:41;;;;;;;0.00;0.00;;;;;;;10.91;63.30;100160.44;15675772;28;20056;-49
2023/12/29 14:18:34;;;;;;;0.00;0.00;;;;;;;10.82;63.79;100153.75;15655334;28;20466;-50
2023/12/29 14:26:09;;;;;;;0.00;0.00;;;;;;;10.68;64.10;100162.00;15653341;28;20079;-48
2023/12/29 14:33:44;;;;;;;0.10;0.10;;;;;;;10.58;64.59;100142.06;15670280;28;20091;-51
2023/12/29 14:41:20;;;;;;;0.00;0.00;;;;;;;10.53;64.59;100149.97;15674448;28;20037;-52
2023/12/29 14:48:54;;;;;;;3.10;1.60;;;;;;;10.70;64.61;100161.75;15657029;28;20494;-55
2023/12/29 14:56:28;;;;;;;0.00;0.00;;;;;;;10.75;65.04;100161.09;15675418;28;20037;-53
2023/12/29 15:04:02;;;;;;;0.00;0.00;;;;;;;10.66;66.15;100169.44;15674202;28;20033;-51
2023/12/29 15:11:38;;;;;;;0.00;0.00;;;;;;;10.71;65.04;100180.31;15656321;28;20041;-51
2023/12/29 15:19:11;;;;;;;0.00;0.00;;;;;;;10.87;64.69;100170.84;15678693;28;20052;-54
2023/12/29 15:26:46;;;;;;;0.00;0.00;;;;;;;10.64;65.16;100201.06;15684837;28;20458;-53
2023/12/29 15:34:21;;;;;;;0.00;0.00;;;;;;;10.61;65.21;100180.03;15683997;28;20043;-52
2023/12/29 15:41:57;;;;;;;0.00;0.00;;;;;;;10.58;64.84;100172.41;15684206;28;20072;-53
2023/12/29 15:49:30;;;;;;;0.00;0.00;;;;;;;10.42;65.60;100187.25;15664483;28;20064;-53
2023/12/29 15:57:07;;;;;;;0.20;0.20;;;;;;;10.32;66.16;100184.28;15682140;28;20040;-51
2023/12/29 16:04:43;;;;;;;0.00;0.00;;;;;;;10.24;66.24;100179.19;15682322;28;20132;-52
2023/12/29 16:12:24;;;;;;;0.00;0.00;;;;;;;10.18;67.35;100178.19;15680697;28;20056;-50
2023/12/29 16:19:57;;;;;;;0.00;0.00;;;;;;;10.27;67.35;100177.94;15680682;28;20048;-51
2023/12/29 16:27:34;;;;;;;0.00;0.00;;;;;;;10.30;67.85;100189.03;15662619;28;20041;-50
2023/12/29 16:35:22;;;;;;;0.00;0.00;;;;;;;10.07;68.80;100176.25;15662790;28;20433;-53
2023/12/29 16:43:00;;;;;;;0.00;0.00;;;;;;;10.16;69.29;100176.75;15676731;28;20555;-51
2023/12/29 16:50:33;;;;;;;0.00;0.00;;;;;;;10.01;69.89;100152.97;15661329;28;20461;-54
2023/12/29 16:58:08;;;;;;;0.00;0.00;;;;;;;10.12;69.85;100160.31;15660670;28;20132;-51
2023/12/29 17:05:41;;;;;;;0.00;0.00;;;;;;;10.11;69.75;100150.59;15677601;28;20123;-52
2023/12/29 17:13:16;;;;;;;0.05;0.05;;;;;;;10.16;69.42;100155.28;15677252;28;20068;-52
2023/12/29 17:20:50;;;;;;;0.00;0.00;;;;;;;10.25;68.95;100147.81;15676056;28;20171;-53
2023/12/29 17:28:24;;;;;;;0.00;0.00;;;;;;;10.15;69.24;100146.44;15676347;28;20135;-52
2023/12/29 17:35:58;;;;;;;0.20;0.20;;;;;;;10.19;69.12;100176.31;15675610;28;20045;-51
2023/12/29 17:43:34;;;;;;;0.00;0.00;;;;;;;10.18;69.07;100169.31;15677117;28;20083;-50
2023/12/29 17:51:09;;;;;;;1.08;0.45;;;;;;;10.12;68.95;100170.22;15675355;28;20123;-51
2023/12/29 17:58:44;;;;;;;0.00;0.00;;;;;;;10.28;67.72;100171.53;15675415;28;20424;-52
2023/12/29 18:06:18;;;;;;;0.00;0.00;;;;;;;10.17;67.72;100186.47;15674177;28;20131;-53
2023/12/29 18:13:52;;;;;;;0.00;0.00;;;;;;;10.24;67.00;100173.81;15674598;28;20370;-52
2023/12/29 18:21:25;;;;;;;0.10;0.10;;;;;;;10.39;66.16;100182.31;15678637;28;20043;-51
2023/12/29 18:29:00;;;;;;;0.00;0.00;;;;;;;10.43;65.77;100174.66;15676950;28;20036;-54
2023/12/29 18:36:33;;;;;;;0.00;0.00;;;;;;;10.16;66.08;100169.53;15682256;22;20052;-48
2023/12/29 18:44:08;;;;;;;0.00;0.00;;;;;;;9.88;67.35;100153.09;15639162;28;20037;-50
2023/12/29 18:51:41;;;;;;;0.00;0.00;;;;;;;9.83;70.14;100209.22;15664543;28;20047;-49
2023/12/29 18:59:17;;;;;;;0.00;0.00;;;;;;;9.62;71.25;100218.47;15668801;28;20092;-48
2023/12/29 19:06:51;;;;;;;0.05;0.00;;;;;;;9.31;72.54;100211.22;15659728;28;20461;-50
2023/12/29 19:14:25;;;;;;;0.00;0.00;;;;;;;9.12;73.92;100226.34;15684861;28;20033;-50
2023/12/29 19:21:59;;;;;;;0.00;0.00;;;;;;;9.08;74.51;100236.66;15677696;28;20068;-50
2023/12/29 19:29:33;;;;;;;0.00;0.00;;;;;;;8.81;76.18;100238.66;15662744;28;20194;-46
2023/12/29 19:37:06;;;;;;;0.00;0.00;;;;;;;8.82;76.87;100242.97;15669091;28;20725;-47
2023/12/29 19:44:42;;;;;;;0.08;0.05;;;;;;;8.89;77.28;100224.19;15656095;28;20126;-49
2023/12/29 19:52:19;;;;;;;0.00;0.00;;;;;;;8.98;77.91;100230.13;15647358;28;20132;-50
2023/12/29 19:59:56;;;;;;;0.05;0.05;;;;;;;9.18;77.17;100230.84;15674736;28;20075;-48
2023/12/29 20:07:29;;;;;;;0.00;0.00;;;;;;;9.01;78.65;100213.66;15681221;28;20124;-51
2023/12/29 20:15:04;;;;;;;0.10;0.10;;;;;;;8.72;78.75;100191.75;15660825;28;20431;-51
2023/12/29 20:22:38;;;;;;;0.10;0.05;;;;;;;8.76;79.42;100181.41;15665911;28;20033;-49
2023/12/29 20:30:14;;;;;;;0.00;0.00;;;;;;;8.49;80.42;100173.50;15660341;28;20559;-52
2023/12/29 20:37:47;;;;;;;0.00;0.00;;;;;;;8.70;80.44;100159.00;15668862;28;20361;-51
2023/12/29 20:45:21;;;;;;;0.00;0.00;;;;;;;8.65;80.46;100164.19;15674767;28;20137;-49
2023/12/29 20:52:55;;;;;;;0.10;0.10;;;;;;;8.70;80.46;100137.59;15674215;28;20144;-49
2023/12/29 21:00:30;;;;;;;0.00;0.00;;;;;;;8.50;81.73;100127.00;15678773;28;20036;-50
2023/12/29 21:08:04;;;;;;;0.00;0.00;;;;;;;8.45;82.27;100124.13;15651900;28;20061;-49
2023/12/29 21:15:39;;;;;;;0.00;0.00;;;;;;;8.27;84.06;100122.09;15677698;28;20060;-49
2023/12/29 21:23:14;;;;;;;0.00;0.00;;;;;;;8.38;83.62;100110.78;15660714;28;20432;-53
2023/12/29 21:30:48;;;;;;;1.00;0.77;;;;;;;8.55;82.97;100099.63;15672563;28;20383;-52
2023/12/29 21:38:22;;;;;;;1.30;0.70;;;;;;;8.46;82.61;100096.34;15671562;28;20576;-50
2023/12/29 21:45:59;;;;;;;0.00;0.00;;;;;;;8.32;83.98;100079.50;15676962;28;20065;-49
2023/12/29 21:53:34;;;;;;;0.00;0.00;;;;;;;8.34;84.76;100045.34;15610770;28;20460;-46
2023/12/29 22:01:33;;;;;;;0.10;0.10;;;;;;;8.49;83.45;100047.81;15620228;28;20136;-48
2023/12/29 22:09:09;;;;;;;0.00;0.00;;;;;;;8.69;82.84;100045.81;15609050;28;20491;-52
2023/12/29 22:16:47;;;;;;;0.00;0.00;;;;;;;8.78;82.54;100033.00;15630850;28;20103;-51
2023/12/29 22:24:23;;;;;;;0.00;0.00;;;;;;;8.90;81.95;100033.13;15636624;28;20030;-49
2023/12/29 22:31:58;;;;;;;0.00;0.00;;;;;;;8.96;82.15;100032.28;15628209;28;20041;-49
2023/12/29 22:39:31;;;;;;;0.00;0.00;;;;;;;9.02;82.21;100019.88;15634155;28;20516;-51
2023/12/29 22:47:06;;;;;;;0.00;0.00;;;;;;;8.88;82.43;100001.25;15669421;28;20482;-52
2023/12/29 22:54:39;;;;;;;0.20;0.20;;;;;;;8.89;81.75;100002.88;15661483;28;20108;-47
2023/12/29 23:02:15;;;;;;;0.00;0.00;;;;;;;9.03;81.03;99997.41;15646750;28;20045;-51
2023/12/29 23:09:50;;;;;;;0.00;0.00;;;;;;;9.06;80.46;100013.06;15621513;28;20041;-50
2023/12/29 23:17:25;;;;;;;0.10;0.10;;;;;;;8.86;81.86;100010.50;15666356;28;20041;-50
2023/12/29 23:24:58;;;;;;;0.00;0.00;;;;;;;8.83;80.61;100032.38;15650373;28;20458;-49
2023/12/29 23:32:34;;;;;;;0.00;0.00;;;;;;;8.87;80.29;100052.31;15654334;28;20106;-52
2023/12/29 23:40:12;;;;;;;0.00;0.00;;;;;;;8.59;81.42;100063.38;15666991;28;20575;-51
2023/12/29 23:47:49;;;;;;;0.00;0.00;;;;;;;8.66;80.83;100061.47;15644938;28;20075;-53
2023/12/29 23:55:24;;;;;;;0.00;0.00;;;;;;;8.40;80.43;100100.69;15654465;28;20041;-49
